Time,TemperatureF,DewpointF,PressureIn,WindDirection,WindDirectionDegrees,WindSpeedMPH,WindSpeedGustMPH,Humidity,HourlyPrecipIn,Conditions,Clouds,dailyrainin,SoftwareType,DateUTC
2013-03-07 00:02:00,30.0,25.0,30.21,SW,236,0.0,0.0,80,0.00,,,0.01,,2013-03-07 05:02:00,
2013-03-07 00:12:00,30.0,25.0,30.21,SW,236,0.0,0.0,80,0.00,,,0.01,,2013-03-07 05:12:00,
2013-03-07 00:22:00,30.0,25.0,30.21,SW,236,0.0,0.0,80,0.00,,,0.01,,2013-03-07 05:22:00,
2013-03-07 00:32:00,29.0,24.0,30.21,SW,223,0.0,2.0,80,0.00,,,0.01,,2013-03-07 05:32:00,
2013-03-07 00:42:00,29.0,24.0,30.21,SW,223,0.0,2.0,80,0.00,,,0.01,,2013-03-07 05:42:00,
2013-03-07 00:52:00,29.0,24.0,30.21,SW,223,0.0,0.0,81,0.00,,,0.00,,2013-03-07 05:52:00,
2013-03-07 01:01:00,28.0,23.0,30.22,SW,223,0.0,0.0,81,0.00,,,0.00,,2013-03-07 06:01:00,
2013-03-07 01:11:00,28.0,23.0,30.22,SW,223,0.0,0.0,81,0.00,,,0.00,,2013-03-07 06:11:00,
2013-03-07 01:21:00,28.0,24.0,30.23,SW,223,0.0,0.0,83,0.00,,,0.00,,2013-03-07 06:21:00,
2013-03-07 01:32:00,28.0,24.0,30.23,SW,223,0.0,0.0,83,0.00,,,0.00,,2013-03-07 06:32:00,
2013-03-07 01:42:00,27.0,23.0,30.23,SW,223,0.0,0.0,84,0.00,,,0.00,,2013-03-07 06:42:00,
2013-03-07 01:52:00,27.0,23.0,30.23,SW,223,0.0,0.0,84,0.00,,,0.00,,2013-03-07 06:52:00,
2013-03-07 02:01:00,28.0,24.0,30.23,SW,223,0.0,0.0,85,0.00,,,0.00,,2013-03-07 07:01:00,
2013-03-07 02:11:00,28.0,24.0,30.23,SW,223,0.0,0.0,85,0.00,,,0.00,,2013-03-07 07:11:00,
2013-03-07 02:22:00,27.0,23.0,30.23,SW,223,0.0,0.0,84,0.00,,,0.00,,2013-03-07 07:22:00,
2013-03-07 02:32:00,27.0,23.0,30.23,SW,223,0.0,0.0,84,0.00,,,0.00,,2013-03-07 07:32:00,
2013-03-07 02:43:00,27.0,23.0,30.23,SW,223,0.0,0.0,84,0.00,,,0.00,,2013-03-07 07:43:00,
2013-03-07 02:53:00,26.0,22.0,30.22,SW,223,0.0,0.0,86,0.00,,,0.00,,2013-03-07 07:53:00,
2013-03-07 03:03:00,26.0,22.0,30.22,SW,223,0.0,0.0,85,0.00,,,0.00,,2013-03-07 08:03:00,
2013-03-07 03:12:00,26.0,22.0,30.22,SW,223,0.0,0.0,85,0.00,,,0.00,,2013-03-07 08:12:00,
2013-03-07 03:23:00,26.0,22.0,30.22,SW,223,0.0,0.0,86,0.00,,,0.00,,2013-03-07 08:23:00,
2013-03-07 03:33:00,26.0,22.0,30.22,SW,223,0.0,0.0,86,0.00,,,0.00,,2013-03-07 08:33:00,
2013-03-07 03:44:00,26.0,22.0,30.22,SW,223,0.0,0.0,86,0.00,,,0.00,,2013-03-07 08:44:00,
2013-03-07 03:54:00,25.0,21.0,30.23,SW,223,0.0,0.0,86,0.00,,,0.00,,2013-03-07 08:54:00,
2013-03-07 04:03:00,25.0,22.0,30.23,SW,223,0.0,0.0,87,0.00,,,0.00,,2013-03-07 09:03:00,
2013-03-07 04:13:00,25.0,22.0,30.23,SW,223,0.0,0.0,87,0.00,,,0.00,,2013-03-07 09:13:00,
2013-03-07 04:23:00,25.0,22.0,30.24,SW,223,0.0,0.0,87,0.00,,,0.00,,2013-03-07 09:23:00,
2013-03-07 04:33:00,24.0,21.0,30.24,SW,223,0.0,0.0,87,0.00,,,0.00,,2013-03-07 09:33:00,
2013-03-07 04:43:00,24.0,21.0,30.24,SW,223,0.0,0.0,87,0.00,,,0.00,,2013-03-07 09:43:00,
2013-03-07 04:53:00,25.0,22.0,30.24,SW,223,0.0,0.0,88,0.00,,,0.00,,2013-03-07 09:53:00,
2013-03-07 05:03:00,25.0,22.0,30.24,SW,223,0.0,0.0,88,0.00,,,0.00,,2013-03-07 10:03:00,
2013-03-07 05:13:00,25.0,22.0,30.24,SW,223,0.0,0.0,88,0.00,,,0.00,,2013-03-07 10:13:00,
2013-03-07 05:23:00,24.0,21.0,30.25,SW,223,0.0,0.0,87,0.00,,,0.00,,2013-03-07 10:23:00,
2013-03-07 05:33:00,24.0,21.0,30.25,SW,223,0.0,0.0,88,0.00,,,0.00,,2013-03-07 10:33:00,
2013-03-07 05:42:00,24.0,21.0,30.25,SW,223,0.0,0.0,88,0.00,,,0.00,,2013-03-07 10:42:00,
2013-03-07 05:53:00,24.0,21.0,30.26,SW,223,0.0,0.0,88,0.00,,,0.00,,2013-03-07 10:53:00,
2013-03-07 06:03:00,24.0,21.0,30.26,SW,223,0.0,0.0,88,0.00,,,0.00,,2013-03-07 11:03:00,
2013-03-07 06:12:00,24.0,21.0,30.26,SW,223,0.0,0.0,88,0.00,,,0.00,,2013-03-07 11:12:00,
2013-03-07 06:23:00,24.0,21.0,30.28,SW,223,0.0,0.0,88,0.00,,,0.00,,2013-03-07 11:23:00,
2013-03-07 06:33:00,24.0,21.0,30.28,SW,223,0.0,0.0,88,0.00,,,0.00,,2013-03-07 11:33:00,
2013-03-07 06:43:00,24.0,21.0,30.28,SW,223,0.0,0.0,88,0.00,,,0.00,,2013-03-07 11:43:00,
2013-03-07 06:54:00,24.0,21.0,30.28,SW,223,0.0,0.0,89,0.00,,,0.00,,2013-03-07 11:54:00,
2013-03-07 07:03:00,24.0,21.0,30.28,SW,223,0.0,0.0,88,0.00,,,0.00,,2013-03-07 12:03:00,
2013-03-07 07:12:00,24.0,21.0,30.28,SW,223,0.0,0.0,88,0.00,,,0.00,,2013-03-07 12:12:00,
2013-03-07 07:23:00,23.0,20.0,30.29,SW,223,0.0,0.0,89,0.00,,,0.00,,2013-03-07 12:23:00,
2013-03-07 07:33:00,24.0,21.0,30.29,SW,223,0.0,0.0,89,0.00,,,0.00,,2013-03-07 12:33:00,
2013-03-07 07:43:00,24.0,21.0,30.29,SW,223,0.0,0.0,89,0.00,,,0.00,,2013-03-07 12:43:00,
2013-03-07 07:53:00,24.0,21.0,30.30,SW,223,0.0,0.0,89,0.00,,,0.00,,2013-03-07 12:53:00,
2013-03-07 08:03:00,24.0,21.0,30.31,SW,223,0.0,0.0,89,0.00,,,0.00,,2013-03-07 13:03:00,
2013-03-07 08:12:00,24.0,21.0,30.31,SW,223,0.0,0.0,89,0.00,,,0.00,,2013-03-07 13:12:00,
2013-03-07 08:23:00,26.0,23.0,30.32,SW,223,0.0,0.0,90,0.00,,,0.00,,2013-03-07 13:23:00,
2013-03-07 08:32:00,27.0,24.0,30.32,SW,223,0.0,0.0,90,0.00,,,0.00,,2013-03-07 13:32:00,
2013-03-07 08:42:00,27.0,24.0,30.32,SW,223,0.0,0.0,90,0.00,,,0.00,,2013-03-07 13:42:00,
2013-03-07 08:53:00,31.0,29.0,30.31,SW,223,0.0,0.0,91,0.00,,,0.00,,2013-03-07 13:53:00,
2013-03-07 09:02:00,33.0,30.0,30.31,East,81,0.0,1.0,88,0.00,,,0.00,,2013-03-07 14:02:00,
2013-03-07 09:12:00,33.0,30.0,30.31,East,81,0.0,1.0,88,0.00,,,0.00,,2013-03-07 14:12:00,
2013-03-07 09:23:00,36.0,30.0,30.31,East,81,0.0,1.0,78,0.00,,,0.00,,2013-03-07 14:23:00,
2013-03-07 09:33:00,38.0,30.0,30.31,East,80,0.0,3.0,73,0.00,,,0.00,,2013-03-07 14:33:00,
2013-03-07 09:42:00,38.0,30.0,30.31,East,80,0.0,3.0,73,0.00,,,0.00,,2013-03-07 14:42:00,
2013-03-07 09:54:00,39.0,29.0,30.31,West,260,0.0,4.0,68,0.00,,,0.00,,2013-03-07 14:54:00,
2013-03-07 10:03:00,41.0,30.0,30.31,WSW,251,1.0,3.0,64,0.00,,,0.00,,2013-03-07 15:03:00,
2013-03-07 10:12:00,41.0,30.0,30.31,WSW,251,1.0,3.0,64,0.00,,,0.00,,2013-03-07 15:12:00,
2013-03-07 10:23:00,42.0,29.0,30.31,ESE,107,1.0,4.0,60,0.00,,,0.00,,2013-03-07 15:23:00,
2013-03-07 10:32:00,43.0,29.0,30.31,SW,235,0.0,4.0,58,0.00,,,0.00,,2013-03-07 15:32:00,
2013-03-07 10:42:00,43.0,29.0,30.31,SW,235,0.0,4.0,58,0.00,,,0.00,,2013-03-07 15:42:00,
2013-03-07 10:53:00,44.0,29.0,30.32,SSW,195,1.0,4.0,56,0.00,,,0.00,,2013-03-07 15:53:00,
2013-03-07 11:02:00,44.0,29.0,30.31,West,260,1.0,4.0,56,0.00,,,0.00,,2013-03-07 16:02:00,
2013-03-07 11:13:00,44.0,29.0,30.31,West,260,1.0,4.0,56,0.00,,,0.00,,2013-03-07 16:13:00,
2013-03-07 11:23:00,45.0,30.0,30.31,NE,56,2.0,4.0,55,0.00,,,0.00,,2013-03-07 16:23:00,
2013-03-07 11:33:00,45.0,30.0,30.31,WSW,241,1.0,4.0,55,0.00,,,0.00,,2013-03-07 16:33:00,
2013-03-07 11:43:00,45.0,30.0,30.31,WSW,241,1.0,4.0,55,0.00,,,0.00,,2013-03-07 16:43:00,
2013-03-07 11:53:00,45.0,30.0,30.30,SW,233,1.0,4.0,55,0.00,,,0.00,,2013-03-07 16:53:00,
2013-03-07 12:02:00,46.0,31.0,30.30,WSW,258,0.0,6.0,55,0.00,,,0.00,,2013-03-07 17:02:00,
2013-03-07 12:12:00,46.0,31.0,30.30,WSW,258,0.0,6.0,55,0.00,,,0.00,,2013-03-07 17:12:00,
2013-03-07 12:23:00,47.0,30.0,30.29,SW,219,0.0,5.0,52,0.00,,,0.00,,2013-03-07 17:23:00,
2013-03-07 12:33:00,47.0,30.0,30.29,NE,52,1.0,4.0,51,0.00,,,0.00,,2013-03-07 17:33:00,
2013-03-07 12:43:00,47.0,30.0,30.29,NE,52,1.0,4.0,51,0.00,,,0.00,,2013-03-07 17:43:00,
2013-03-07 12:54:00,49.0,31.0,30.28,WSW,244,1.0,5.0,49,0.00,,,0.00,,2013-03-07 17:54:00,
2013-03-07 13:04:00,50.0,31.0,30.27,WSW,246,1.0,6.0,47,0.00,,,0.00,,2013-03-07 18:04:00,
2013-03-07 13:12:00,50.0,31.0,30.27,WSW,246,1.0,6.0,47,0.00,,,0.00,,2013-03-07 18:12:00,
2013-03-07 13:22:00,49.0,30.0,30.26,WSW,239,1.0,5.0,48,0.00,,,0.00,,2013-03-07 18:22:00,
2013-03-07 13:32:00,50.0,31.0,30.26,NE,35,1.0,4.0,47,0.00,,,0.00,,2013-03-07 18:32:00,
2013-03-07 13:42:00,50.0,31.0,30.26,NE,35,1.0,4.0,47,0.00,,,0.00,,2013-03-07 18:42:00,
2013-03-07 13:53:00,52.0,31.0,30.25,NE,55,2.0,6.0,45,0.00,,,0.00,,2013-03-07 18:53:00,
2013-03-07 14:03:00,52.0,31.0,30.24,SW,225,1.0,4.0,45,0.00,,,0.00,,2013-03-07 19:03:00,
2013-03-07 14:12:00,52.0,31.0,30.24,NE,51,0.0,4.0,44,0.00,,,0.00,,2013-03-07 19:12:00,
2013-03-07 14:23:00,52.0,31.0,30.24,NE,51,0.0,4.0,44,0.00,,,0.00,,2013-03-07 19:23:00,
2013-03-07 14:35:00,53.0,32.0,30.24,NE,54,2.0,10.0,44,0.00,,,0.00,,2013-03-07 19:35:00,
2013-03-07 14:43:00,53.0,32.0,30.24,NE,54,2.0,10.0,44,0.00,,,0.00,,2013-03-07 19:43:00,
2013-03-07 15:02:00,54.0,32.0,30.24,East,80,1.0,6.0,43,0.00,,,0.00,,2013-03-07 20:02:00,
2013-03-07 15:13:00,54.0,32.0,30.24,East,80,1.0,6.0,43,0.00,,,0.00,,2013-03-07 20:13:00,
2013-03-07 15:33:00,55.0,31.0,30.24,NE,41,0.0,6.0,40,0.00,,,0.00,,2013-03-07 20:33:00,
2013-03-07 15:43:00,55.0,31.0,30.24,NE,41,0.0,6.0,40,0.00,,,0.00,,2013-03-07 20:43:00,
2013-03-07 15:54:00,56.0,31.0,30.23,NE,42,3.0,10.0,39,0.00,,,0.00,,2013-03-07 20:54:00,
2013-03-07 16:12:00,56.0,31.0,30.23,WSW,250,2.0,5.0,39,0.00,,,0.00,,2013-03-07 21:12:00,
2013-03-07 16:23:00,56.0,31.0,30.23,NE,56,2.0,4.0,38,0.00,,,0.00,,2013-03-07 21:23:00,
2013-03-07 16:33:00,55.0,31.0,30.23,ENE,57,3.0,7.0,39,0.00,,,0.00,,2013-03-07 21:33:00,
2013-03-07 16:43:00,55.0,31.0,30.23,ENE,57,3.0,7.0,39,0.00,,,0.00,,2013-03-07 21:43:00,
2013-03-07 16:53:00,55.0,31.0,30.23,NE,53,3.0,6.0,40,0.00,,,0.00,,2013-03-07 21:53:00,
2013-03-07 17:02:00,54.0,31.0,30.23,ENE,57,1.0,7.0,41,0.00,,,0.00,,2013-03-07 22:02:00,
2013-03-07 17:12:00,54.0,31.0,30.23,ENE,57,1.0,7.0,41,0.00,,,0.00,,2013-03-07 22:12:00,
2013-03-07 17:23:00,54.0,31.0,30.24,WSW,237,1.0,4.0,41,0.00,,,0.00,,2013-03-07 22:23:00,
2013-03-07 17:32:00,53.0,31.0,30.24,NE,51,1.0,4.0,42,0.00,,,0.00,,2013-03-07 22:32:00,
2013-03-07 17:43:00,53.0,31.0,30.24,NE,51,1.0,4.0,42,0.00,,,0.00,,2013-03-07 22:43:00,
2013-03-07 17:54:00,53.0,31.0,30.25,SW,227,1.0,5.0,43,0.00,,,0.00,,2013-03-07 22:54:00,
2013-03-07 18:03:00,52.0,31.0,30.25,South,175,0.0,4.0,44,0.00,,,0.00,,2013-03-07 23:03:00,
2013-03-07 18:13:00,52.0,31.0,30.25,South,175,0.0,4.0,44,0.00,,,0.00,,2013-03-07 23:13:00,
2013-03-07 18:22:00,51.0,30.0,30.27,South,190,0.0,4.0,45,0.00,,,0.00,,2013-03-07 23:22:00,
2013-03-07 18:34:00,50.0,30.0,30.27,WSW,238,0.0,4.0,46,0.00,,,0.00,,2013-03-07 23:34:00,
2013-03-07 18:43:00,50.0,30.0,30.27,WSW,238,0.0,4.0,46,0.00,,,0.00,,2013-03-07 23:43:00,
2013-03-07 18:54:00,48.0,29.0,30.28,WSW,238,1.0,6.0,47,0.00,,,0.00,,2013-03-07 23:54:00,
2013-03-07 19:04:00,47.0,28.0,30.28,SW,225,0.0,4.0,48,0.00,,,0.00,,2013-03-08 00:04:00,
2013-03-07 19:13:00,47.0,28.0,30.28,SW,225,0.0,4.0,48,0.00,,,0.00,,2013-03-08 00:13:00,
2013-03-07 19:23:00,46.0,28.0,30.30,NNE,23,1.0,4.0,50,0.00,,,0.00,,2013-03-08 00:23:00,
2013-03-07 19:34:00,45.0,27.0,30.31,ESE,123,1.0,5.0,50,0.00,,,0.00,,2013-03-08 00:34:00,
2013-03-07 19:43:00,45.0,27.0,30.31,ESE,123,1.0,5.0,50,0.00,,,0.00,,2013-03-08 00:43:00,
2013-03-07 19:54:00,44.0,28.0,30.31,East,91,0.0,3.0,52,0.00,,,0.00,,2013-03-08 00:54:00,
2013-03-07 20:02:00,43.0,27.0,30.32,East,80,0.0,5.0,53,0.00,,,0.00,,2013-03-08 01:02:00,
2013-03-07 20:11:00,43.0,27.0,30.32,East,80,0.0,5.0,53,0.00,,,0.00,,2013-03-08 01:11:00,
2013-03-07 20:22:00,42.0,27.0,30.33,SSW,198,0.0,7.0,54,0.00,,,0.00,,2013-03-08 01:22:00,
2013-03-07 20:42:00,41.0,26.0,30.33,NNE,26,0.0,2.0,55,0.00,,,0.00,,2013-03-08 01:42:00,
2013-03-07 20:52:00,40.0,26.0,30.35,SW,234,0.0,5.0,57,0.00,,,0.00,,2013-03-08 01:52:00,
2013-03-07 21:01:00,40.0,26.0,30.35,NE,47,0.0,3.0,57,0.00,,,0.00,,2013-03-08 02:01:00,
2013-03-07 21:12:00,39.0,26.0,30.35,WSW,254,0.0,2.0,59,0.00,,,0.00,,2013-03-08 02:12:00,
2013-03-07 21:22:00,39.0,26.0,30.35,WSW,254,0.0,2.0,59,0.00,,,0.00,,2013-03-08 02:22:00,
2013-03-07 21:32:00,38.0,25.0,30.35,SW,218,0.0,2.0,60,0.00,,,0.00,,2013-03-08 02:32:00,
2013-03-07 21:42:00,38.0,25.0,30.35,SW,218,0.0,2.0,60,0.00,,,0.00,,2013-03-08 02:42:00,
2013-03-07 21:53:00,38.0,26.0,30.35,SE,136,1.0,4.0,61,0.00,,,0.00,,2013-03-08 02:53:00,
2013-03-07 22:02:00,38.0,26.0,30.35,WSW,245,0.0,3.0,61,0.00,,,0.00,,2013-03-08 03:02:00,
2013-03-07 22:12:00,38.0,26.0,30.35,WSW,245,0.0,3.0,61,0.00,,,0.00,,2013-03-08 03:12:00,
2013-03-07 22:32:00,37.0,25.0,30.36,SW,236,0.0,4.0,62,0.00,,,0.00,,2013-03-08 03:32:00,
2013-03-07 22:43:00,37.0,25.0,30.36,SW,236,0.0,4.0,62,0.00,,,0.00,,2013-03-08 03:43:00,
2013-03-07 22:53:00,36.0,25.0,30.36,SW,228,0.0,2.0,63,0.00,,,0.00,,2013-03-08 03:53:00,
2013-03-07 23:02:00,36.0,25.0,30.36,SW,232,0.0,1.0,64,0.00,,,0.00,,2013-03-08 04:02:00,
2013-03-07 23:11:00,36.0,25.0,30.36,SW,232,0.0,1.0,64,0.00,,,0.00,,2013-03-08 04:11:00,
2013-03-07 23:22:00,36.0,25.0,30.35,SW,232,0.0,1.0,65,0.00,,,0.00,,2013-03-08 04:22:00,
2013-03-07 23:32:00,35.0,25.0,30.35,SW,232,0.0,1.0,66,0.00,,,0.00,,2013-03-08 04:32:00,
2013-03-07 23:42:00,35.0,25.0,30.35,SW,232,0.0,1.0,66,0.00,,,0.00,,2013-03-08 04:42:00,
2013-03-07 23:52:00,34.0,24.0,30.36,SW,232,0.0,0.0,67,0.00,,,0.00,,2013-03-08 04:52:00,